createdAt,value
2023-04-14T00:01:43.619Z,4.31
2023-04-14T00:04:14.689Z,4.21
2023-04-14T00:06:44.268Z,4.27
2023-04-14T00:09:13.656Z,4.17
2023-04-14T00:11:42.944Z,4.21
2023-04-14T00:14:12.249Z,4.21
2023-04-14T00:20:44.488Z,4.11
2023-04-14T00:23:13.779Z,4.17
2023-04-14T00:25:43.261Z,4.12
2023-04-14T00:28:12.734Z,4.08
2023-04-14T00:30:42.405Z,4.14
2023-04-14T00:33:11.749Z,4.12
2023-04-14T00:35:41.034Z,4.13
2023-04-14T00:38:10.688Z,4.09
2023-04-14T00:40:39.974Z,3.93
2023-04-14T00:43:09.243Z,3.87
2023-04-14T00:45:41.695Z,3.71
2023-04-14T00:48:11.140Z,3.52
2023-04-14T00:50:40.755Z,3.41
2023-04-14T00:53:10.395Z,3.21
2023-04-14T00:55:41.294Z,3.15
2023-04-14T00:58:11.364Z,3.07
2023-04-14T01:00:40.946Z,2.97
2023-04-14T01:03:11.866Z,2.91
2023-04-14T01:05:41.618Z,3.15
2023-04-14T01:08:11.237Z,3.31
2023-04-14T01:10:44.876Z,3.28
2023-04-14T01:13:23.944Z,3.31
2023-04-14T01:15:56.723Z,3.23
2023-04-14T01:18:47.700Z,3.22
2023-04-14T01:21:19.439Z,3.12
2023-04-14T01:24:02.556Z,3.09
2023-04-14T01:26:32.586Z,3.01
2023-04-14T01:29:33.896Z,2.97
2023-04-14T01:32:10.221Z,3.02
2023-04-14T01:34:57.636Z,2.86
2023-04-14T01:37:34.367Z,2.87
2023-04-14T01:40:11.509Z,2.84
2023-04-14T01:42:44.116Z,2.79
2023-04-14T01:45:19.303Z,2.74
2023-04-14T01:47:49.425Z,2.69
2023-04-14T01:50:20.678Z,2.73
2023-04-14T01:52:53.684Z,2.77
2023-04-14T01:55:24.736Z,2.77
2023-04-14T01:57:55.354Z,2.75
2023-04-14T02:00:26.203Z,2.74
2023-04-14T02:02:56.186Z,2.73
2023-04-14T02:05:26.653Z,2.67
2023-04-14T02:07:56.632Z,2.57
2023-04-14T02:10:26.402Z,2.53
2023-04-14T02:12:57.955Z,2.44
2023-04-14T02:15:28.653Z,2.40
2023-04-14T02:17:58.846Z,2.41
2023-04-14T02:20:29.923Z,2.34
2023-04-14T02:22:59.452Z,2.33
2023-04-14T02:25:31.900Z,2.49
2023-04-14T02:28:07.574Z,2.56
2023-04-14T02:30:41.771Z,2.57
2023-04-14T02:33:17.133Z,2.47
2023-04-14T02:35:58.816Z,2.39
2023-04-14T02:38:39.911Z,2.39
2023-04-14T02:41:15.653Z,2.34
2023-04-14T02:43:48.360Z,2.45
2023-04-14T02:46:18.811Z,2.40
2023-04-14T02:48:49.030Z,2.46
2023-04-14T02:51:19.536Z,2.49
2023-04-14T02:53:49.477Z,2.52
2023-04-14T02:56:20.822Z,2.43
2023-04-14T02:58:52.513Z,2.37
2023-04-14T03:01:23.418Z,2.32
2023-04-14T03:03:54.123Z,2.35
2023-04-14T03:06:26.196Z,2.38
2023-04-14T03:08:56.607Z,2.42
2023-04-14T03:11:26.963Z,2.41
2023-04-14T03:13:57.916Z,2.30
2023-04-14T03:16:27.818Z,2.23
2023-04-14T03:18:59.027Z,2.18
2023-04-14T03:21:30.165Z,2.17
2023-04-14T03:24:00.753Z,2.14
2023-04-14T03:26:31.285Z,2.14
2023-04-14T03:29:02.853Z,2.18
2023-04-14T03:31:34.210Z,2.13
2023-04-14T03:34:05.951Z,2.26
2023-04-14T03:36:38.224Z,2.32
2023-04-14T03:39:09.219Z,2.32
2023-04-14T03:41:42.458Z,2.30
2023-04-14T03:44:14.137Z,2.34
2023-04-14T03:46:44.704Z,2.34
2023-04-14T03:49:16.953Z,2.30
2023-04-14T03:51:48.397Z,2.30
2023-04-14T03:54:19.085Z,2.22
2023-04-14T03:56:51.574Z,2.21
2023-04-14T03:59:20.682Z,2.21
2023-04-14T04:01:51.023Z,2.19
2023-04-14T04:04:21.412Z,2.19
2023-04-14T04:06:52.022Z,2.18
2023-04-14T04:09:22.480Z,2.16
2023-04-14T04:11:53.264Z,2.18
2023-04-14T04:14:23.748Z,2.13
2023-04-14T04:16:55.792Z,2.04
2023-04-14T04:19:25.715Z,2.06
2023-04-14T04:21:57.375Z,2.12
2023-04-14T04:24:28.597Z,2.15
2023-04-14T04:26:59.658Z,2.18
2023-04-14T04:29:29.314Z,2.22
2023-04-14T04:31:59.453Z,2.26
2023-04-14T04:34:32.507Z,2.19
2023-04-14T04:37:02.338Z,2.21
2023-04-14T04:39:31.996Z,2.19
2023-04-14T04:42:04.816Z,2.18
2023-04-14T04:44:34.107Z,2.18
2023-04-14T04:47:03.798Z,2.23
2023-04-14T04:49:33.349Z,2.17
2023-04-14T04:52:04.785Z,2.19
2023-04-14T04:54:34.339Z,2.18
2023-04-14T04:57:03.664Z,2.23
2023-04-14T04:59:33.376Z,2.23
2023-04-14T05:02:02.756Z,2.25
2023-04-14T05:04:32.412Z,2.28
2023-04-14T05:07:03.410Z,2.31
2023-04-14T05:09:32.993Z,2.32
2023-04-14T05:12:02.547Z,2.33
2023-04-14T05:14:31.827Z,2.37
2023-04-14T05:17:01.495Z,2.37
2023-04-14T05:19:30.779Z,2.45
2023-04-14T05:22:00.442Z,2.53
2023-04-14T05:24:29.720Z,2.47
2023-04-14T05:29:30.471Z,2.50
2023-04-14T05:31:59.754Z,2.45
2023-04-14T05:34:29.374Z,2.52
2023-04-14T05:36:58.639Z,2.48
2023-04-14T05:39:27.922Z,2.77
2023-04-14T05:41:57.635Z,3.55
2023-04-14T05:44:27.085Z,3.74
2023-04-14T05:46:56.539Z,4.27
2023-04-14T05:49:26.043Z,5.53
2023-04-14T05:51:58.246Z,6.52
2023-04-14T05:54:27.521Z,6.86
2023-04-14T05:56:57.648Z,6.79
2023-04-14T05:59:27.712Z,6.50
2023-04-14T06:01:57.321Z,7.32
2023-04-14T06:04:27.377Z,7.91
2023-04-14T06:06:58.577Z,8.32
2023-04-14T06:09:28.229Z,7.91
2023-04-14T06:11:58.176Z,8.56
2023-04-14T06:14:27.579Z,9.18
2023-04-14T06:16:57.576Z,8.62
2023-04-14T06:19:27.465Z,8.30
2023-04-14T06:21:56.814Z,8.29
2023-04-14T06:24:26.163Z,7.92
2023-04-14T06:26:55.471Z,8.03
2023-04-14T06:29:24.766Z,7.61
2023-04-14T06:31:55.082Z,7.01
2023-04-14T06:34:24.859Z,6.13
2023-04-14T06:36:55.923Z,5.84
2023-04-14T06:39:26.426Z,5.63
2023-04-14T06:41:56.752Z,5.48
2023-04-14T06:44:26.398Z,5.57
2023-04-14T06:46:57.162Z,5.62
2023-04-14T06:49:26.589Z,5.92
2023-04-14T06:51:55.866Z,6.33
2023-04-14T06:54:25.276Z,6.61
2023-04-14T06:56:54.570Z,7.30
2023-04-14T06:59:25.441Z,7.27
2023-04-14T07:01:55.397Z,7.72
2023-04-14T07:04:24.950Z,8.58
2023-04-14T07:06:54.700Z,9.32
2023-04-14T07:09:24.659Z,9.38
2023-04-14T07:11:53.994Z,9.00
2023-04-14T07:14:23.368Z,8.57
2023-04-14T07:16:53.370Z,8.56
2023-04-14T07:19:22.848Z,9.12
2023-04-14T07:21:52.398Z,9.87
2023-04-14T07:24:21.830Z,10.45
2023-04-14T07:26:51.426Z,10.01
2023-04-14T07:29:21.156Z,9.08
2023-04-14T07:31:50.838Z,9.37
2023-04-14T07:34:20.671Z,9.20
2023-04-14T07:36:50.624Z,8.84
2023-04-14T07:39:23.273Z,8.47
2023-04-14T07:41:51.935Z,8.04
2023-04-14T07:44:21.602Z,8.07
2023-04-14T07:46:50.953Z,7.95
2023-04-14T07:49:20.828Z,7.92
2023-04-14T07:51:50.938Z,8.29
2023-04-14T07:54:20.326Z,8.58
2023-04-14T07:56:49.734Z,8.90
2023-04-14T07:59:19.093Z,9.03
2023-04-14T08:01:48.709Z,9.57
2023-04-14T08:04:18.504Z,9.27
2023-04-14T08:06:47.852Z,9.65
2023-04-14T08:09:17.469Z,10.09
2023-04-14T08:11:46.708Z,10.23
2023-04-14T08:14:16.373Z,9.88
2023-04-14T08:16:45.718Z,10.07
2023-04-14T08:19:15.381Z,10.13
2023-04-14T08:21:44.600Z,10.64
2023-04-14T08:24:14.164Z,10.72
2023-04-14T08:26:43.613Z,10.88
2023-04-14T08:29:12.872Z,11.08
2023-04-14T08:31:42.175Z,11.24
2023-04-14T08:34:11.565Z,10.75
2023-04-14T08:36:42.131Z,11.27
2023-04-14T08:39:11.390Z,11.08
2023-04-14T08:41:41.511Z,11.08
2023-04-14T08:44:10.826Z,11.21
2023-04-14T08:46:40.545Z,10.80
2023-04-14T08:49:13.104Z,11.08
2023-04-14T08:51:43.893Z,11.26
2023-04-14T08:54:15.548Z,11.02
2023-04-14T08:56:45.042Z,11.35
2023-04-14T08:59:14.324Z,11.38
2023-04-14T09:01:43.923Z,11.47
2023-04-14T09:04:14.715Z,11.92
2023-04-14T09:06:44.369Z,12.28
2023-04-14T09:09:14.442Z,12.15
2023-04-14T09:11:44.164Z,12.50
2023-04-14T09:14:14.594Z,12.96
2023-04-14T09:16:43.908Z,12.43
2023-04-14T09:19:13.218Z,12.95
2023-04-14T09:21:53.665Z,13.11
2023-04-14T09:24:13.892Z,13.23
2023-04-14T09:26:43.235Z,13.24
2023-04-14T09:29:12.501Z,14.15
2023-04-14T09:31:42.659Z,14.51
2023-04-14T09:34:20.887Z,15.06
2023-04-14T09:37:07.265Z,15.10
2023-04-14T09:39:39.556Z,16.18
2023-04-14T09:42:08.835Z,16.37
2023-04-14T09:44:55.483Z,16.26
2023-04-14T09:47:26.219Z,16.94
2023-04-14T09:50:03.901Z,17.56
2023-04-14T09:52:45.450Z,16.76
2023-04-14T09:55:17.152Z,17.25
2023-04-14T09:57:47.946Z,17.68
2023-04-14T10:00:22.539Z,17.65
2023-04-14T10:02:54.275Z,18.69
2023-04-14T10:05:23.377Z,17.32
2023-04-14T10:07:52.618Z,16.33
2023-04-14T10:10:23.047Z,15.94
2023-04-14T10:12:54.603Z,16.04
2023-04-14T10:15:24.041Z,16.04
2023-04-14T10:17:53.358Z,15.51
2023-04-14T10:20:23.480Z,17.96
2023-04-14T10:22:54.341Z,18.52
2023-04-14T10:25:24.438Z,18.88
2023-04-14T10:27:53.960Z,15.98
2023-04-14T10:30:23.966Z,14.23
2023-04-14T10:32:53.620Z,13.56
2023-04-14T10:35:23.200Z,13.49
2023-04-14T10:37:53.715Z,14.85
2023-04-14T10:40:23.490Z,14.75
2023-04-14T10:42:55.067Z,14.95
2023-04-14T10:45:24.693Z,14.41
2023-04-14T10:47:53.919Z,15.68
2023-04-14T10:50:27.322Z,14.96
2023-04-14T10:52:58.816Z,15.71
2023-04-14T10:55:29.251Z,17.29
2023-04-14T10:58:01.975Z,15.95
2023-04-14T11:00:34.238Z,15.95
2023-04-14T11:03:12.262Z,15.25
2023-04-14T11:05:46.372Z,16.03
2023-04-14T11:08:28.283Z,16.03
2023-04-14T11:11:02.367Z,15.28
2023-04-14T11:13:33.126Z,14.95
2023-04-14T11:16:05.838Z,14.15
2023-04-14T11:18:45.382Z,13.89
2023-04-14T11:21:16.407Z,15.28
2023-04-14T11:23:46.806Z,16.02
2023-04-14T11:26:16.244Z,15.53
2023-04-14T11:28:46.680Z,15.94
2023-04-14T11:31:23.021Z,15.41
2023-04-14T11:33:51.047Z,14.24
2023-04-14T11:36:20.428Z,15.51
2023-04-14T11:38:50.095Z,16.46
2023-04-14T11:41:20.380Z,15.07
2023-04-14T11:43:50.003Z,14.96
2023-04-14T11:46:22.416Z,14.36
2023-04-14T11:48:57.855Z,14.28
2023-04-14T11:51:32.685Z,13.66
2023-04-14T11:54:02.488Z,13.21
2023-04-14T11:56:33.274Z,13.32
2023-04-14T11:59:04.376Z,13.96
2023-04-14T12:01:34.002Z,14.13
2023-04-14T12:04:06.444Z,14.24
2023-04-14T12:06:39.133Z,14.06
2023-04-14T12:09:10.040Z,13.77
2023-04-14T12:11:39.642Z,13.72
2023-04-14T12:14:09.334Z,14.18
2023-04-14T12:16:38.715Z,14.21
2023-04-14T12:19:08.052Z,14.16
2023-04-14T12:21:37.673Z,14.37
2023-04-14T12:24:06.993Z,15.20
2023-04-14T12:26:37.922Z,15.21
2023-04-14T12:29:08.137Z,14.78
2023-04-14T12:31:37.466Z,14.98
2023-04-14T12:34:06.748Z,15.01
2023-04-14T12:36:50.140Z,15.68
2023-04-14T12:39:13.013Z,14.77
2023-04-14T12:41:42.761Z,14.77
2023-04-14T12:44:17.221Z,14.21
2023-04-14T12:46:50.755Z,14.11
2023-04-14T12:49:39.350Z,14.04
2023-04-14T12:52:08.951Z,14.47
2023-04-14T12:54:55.050Z,14.77
2023-04-14T12:57:24.705Z,14.95
2023-04-14T12:59:54.319Z,14.68
2023-04-14T13:02:24.275Z,14.87
2023-04-14T13:04:53.676Z,15.56
2023-04-14T13:07:23.420Z,15.44
2023-04-14T13:09:53.644Z,15.42
2023-04-14T13:12:22.978Z,15.13
2023-04-14T13:14:53.793Z,14.79
2023-04-14T13:17:23.196Z,14.64
2023-04-14T13:19:54.105Z,13.84
2023-04-14T13:22:23.589Z,14.42
2023-04-14T13:24:53.110Z,14.46
2023-04-14T13:27:22.375Z,14.26
2023-04-14T13:29:51.666Z,14.49
2023-04-14T13:32:21.381Z,14.22
2023-04-14T13:34:52.642Z,14.27
2023-04-14T13:41:50.059Z,15.87
2023-04-14T13:44:19.616Z,17.99
2023-04-14T13:46:50.360Z,17.82
2023-04-14T13:49:19.921Z,18.23
2023-04-14T13:51:49.479Z,17.85
2023-04-14T13:54:18.732Z,17.08
2023-04-14T13:56:48.095Z,16.70
2023-04-14T13:59:17.375Z,15.89
2023-04-14T14:02:02.181Z,15.55
2023-04-14T14:04:31.843Z,15.11
2023-04-14T14:07:01.545Z,15.00
2023-04-14T14:09:30.841Z,13.85
2023-04-14T14:12:00.478Z,13.59
2023-04-14T14:14:29.751Z,13.38
2023-04-14T14:16:59.015Z,13.75
2023-04-14T14:19:28.603Z,15.37
2023-04-14T14:21:58.020Z,17.17
2023-04-14T14:24:27.325Z,17.43
2023-04-14T14:26:57.142Z,17.04
2023-04-14T14:29:26.373Z,16.48
2023-04-14T14:31:55.722Z,16.66
2023-04-14T14:34:25.310Z,16.01
2023-04-14T14:36:55.357Z,15.15
2023-04-14T14:39:29.410Z,14.66
2023-04-14T14:41:59.059Z,14.21
2023-04-14T14:44:28.569Z,15.03
2023-04-14T14:46:58.977Z,15.67
2023-04-14T14:49:28.217Z,16.41
2023-04-14T14:51:57.515Z,16.11
2023-04-14T14:54:26.969Z,15.51
2023-04-14T14:56:56.949Z,14.87
2023-04-14T14:59:26.351Z,14.71
2023-04-14T15:01:56.193Z,14.41
2023-04-14T15:04:25.790Z,14.41
2023-04-14T15:06:55.274Z,14.47
2023-04-14T15:09:24.750Z,14.28
2023-04-14T15:11:54.201Z,14.48
2023-04-14T15:14:24.357Z,14.71
2023-04-14T15:19:33.593Z,14.52
2023-04-14T15:22:02.930Z,14.54
2023-04-14T15:24:32.192Z,14.31
2023-04-14T15:27:03.106Z,14.05
2023-04-14T15:29:32.446Z,13.91
2023-04-14T15:32:02.162Z,13.88
2023-04-14T15:34:31.508Z,14.11
2023-04-14T15:37:01.223Z,14.38
2023-04-14T15:39:30.568Z,16.15
2023-04-14T15:42:01.468Z,17.32
2023-04-14T15:44:31.017Z,17.73
2023-04-14T15:47:02.370Z,17.70
2023-04-14T15:49:31.946Z,17.00
2023-04-14T15:52:01.302Z,16.23
2023-04-14T15:54:31.716Z,16.12
2023-04-14T15:57:02.486Z,15.80
2023-04-14T15:59:32.635Z,17.16
2023-04-14T16:02:03.092Z,17.63
2023-04-14T16:04:32.721Z,16.98
2023-04-14T16:07:02.526Z,16.09
2023-04-14T16:09:31.796Z,15.48
2023-04-14T16:12:01.524Z,15.22
2023-04-14T16:14:35.419Z,14.71
2023-04-14T16:17:04.726Z,14.61
2023-04-14T16:19:33.985Z,14.51
2023-04-14T16:22:03.284Z,14.36
2023-04-14T16:24:32.975Z,14.47
2023-04-14T16:27:02.913Z,13.73
2023-04-14T16:29:32.422Z,13.22
2023-04-14T16:32:02.343Z,12.79
2023-04-14T16:34:31.970Z,12.36
2023-04-14T16:37:01.268Z,12.18
2023-04-14T16:39:31.650Z,12.11
2023-04-14T16:42:02.647Z,12.20
2023-04-14T16:44:32.548Z,12.27
2023-04-14T16:47:01.921Z,12.42
2023-04-14T16:49:31.705Z,12.49
2023-04-14T16:52:01.472Z,12.55
2023-04-14T16:54:30.712Z,12.59
2023-04-14T16:57:00.703Z,12.62
2023-04-14T16:59:31.050Z,12.57
2023-04-14T17:02:01.231Z,12.59
2023-04-14T17:04:32.721Z,12.58
2023-04-14T17:07:02.328Z,12.55
2023-04-14T17:09:32.335Z,12.50
2023-04-14T17:12:01.927Z,12.52
2023-04-14T17:14:31.429Z,12.58
2023-04-14T17:17:00.767Z,12.55
2023-04-14T17:19:30.333Z,12.46
2023-04-14T17:21:59.681Z,12.43
2023-04-14T17:24:29.545Z,12.39
2023-04-14T17:27:00.654Z,12.37
2023-04-14T17:29:29.938Z,12.35
2023-04-14T17:31:59.827Z,12.33
2023-04-14T17:34:29.699Z,12.32
2023-04-14T17:36:59.497Z,12.28
2023-04-14T17:39:29.153Z,12.30
2023-04-14T17:41:58.946Z,12.30
2023-04-14T17:44:36.498Z,12.31
2023-04-14T17:47:07.521Z,12.33
2023-04-14T17:49:37.073Z,12.34
2023-04-14T17:52:09.295Z,12.27
2023-04-14T17:54:38.640Z,12.25
2023-04-14T17:57:10.035Z,12.08
2023-04-14T17:59:43.338Z,11.98
2023-04-14T18:02:16.334Z,11.87
2023-04-14T18:04:47.268Z,11.79
2023-04-14T18:07:17.494Z,11.74
2023-04-14T18:09:47.716Z,11.74
2023-04-14T18:12:16.964Z,11.69
2023-04-14T18:14:46.382Z,11.54
2023-04-14T18:17:15.859Z,11.48
2023-04-14T18:19:45.567Z,11.32
2023-04-14T18:22:15.019Z,11.19
2023-04-14T18:29:46.664Z,10.79
2023-04-14T18:32:16.237Z,10.62
2023-04-14T18:34:46.181Z,10.50
2023-04-14T18:37:15.992Z,10.46
2023-04-14T18:39:45.563Z,10.36
2023-04-14T18:42:15.216Z,10.25
2023-04-14T18:44:44.662Z,10.20
2023-04-14T18:47:14.311Z,10.14
2023-04-14T18:49:43.772Z,10.05
2023-04-14T18:52:13.099Z,9.95
2023-04-14T18:54:42.843Z,9.95
2023-04-14T18:57:12.145Z,9.89
2023-04-14T18:59:41.954Z,9.79
2023-04-14T19:02:13.594Z,9.79
2023-04-14T19:04:43.476Z,9.72
2023-04-14T19:07:13.188Z,9.66
2023-04-14T19:09:42.720Z,9.68
2023-04-14T19:12:21.793Z,9.68
2023-04-14T19:14:45.377Z,9.61
2023-04-14T19:17:14.637Z,9.66
2023-04-14T19:19:44.168Z,9.73
2023-04-14T19:22:15.197Z,9.74
2023-04-14T19:24:45.216Z,9.77
2023-04-14T19:27:14.983Z,9.75
2023-04-14T19:29:44.548Z,9.82
2023-04-14T19:32:14.113Z,9.72
2023-04-14T19:34:43.547Z,9.70
2023-04-14T19:37:13.554Z,9.63
2023-04-14T19:39:43.237Z,9.57
2023-04-14T19:42:12.909Z,9.43
2023-04-14T19:44:42.760Z,9.36
2023-04-14T19:47:12.572Z,9.41
2023-04-14T19:49:42.734Z,9.36
2023-04-14T19:52:12.225Z,9.20
2023-04-14T19:54:41.469Z,9.13
2023-04-14T19:57:11.249Z,9.02
2023-04-14T19:59:40.727Z,9.03
2023-04-14T20:02:11.750Z,8.85
2023-04-14T20:04:41.257Z,8.63
2023-04-14T20:07:10.628Z,8.43
2023-04-14T20:09:41.660Z,8.30
2023-04-14T20:12:11.133Z,8.25
2023-04-14T20:14:41.453Z,8.26
2023-04-14T20:17:12.915Z,8.22
2023-04-14T20:19:42.707Z,8.13
2023-04-14T20:22:12.621Z,8.05
2023-04-14T20:24:42.043Z,8.03
2023-04-14T20:27:11.680Z,7.90
2023-04-14T20:29:40.956Z,7.75
2023-04-14T20:32:10.431Z,7.64
2023-04-14T20:34:40.765Z,7.52
2023-04-14T20:37:10.030Z,7.39
2023-04-14T20:39:42.363Z,7.27
2023-04-14T20:42:11.647Z,7.22
2023-04-14T20:44:41.755Z,7.14
2023-04-14T20:47:11.043Z,7.13
2023-04-14T20:49:41.398Z,7.10
2023-04-14T20:52:10.870Z,7.11
2023-04-14T20:54:40.476Z,7.10
2023-04-14T20:57:10.718Z,7.13
2023-04-14T20:59:40.098Z,7.08
2023-04-14T21:02:09.510Z,7.11
2023-04-14T21:04:39.201Z,7.19
2023-04-14T21:07:08.645Z,7.27
2023-04-14T21:09:37.908Z,7.36
2023-04-14T21:12:15.517Z,7.37
2023-04-14T21:15:49.577Z,7.37
2023-04-14T21:17:11.765Z,7.42
2023-04-14T21:19:42.232Z,7.53
2023-04-14T21:22:11.683Z,7.61
2023-04-14T21:24:42.718Z,7.68
2023-04-14T21:27:12.455Z,7.70
2023-04-14T21:29:41.866Z,7.84
2023-04-14T21:32:12.298Z,7.94
2023-04-14T21:34:42.447Z,7.97
2023-04-14T21:37:14.247Z,7.86
2023-04-14T21:39:43.875Z,7.85
2023-04-14T21:42:14.001Z,7.85
2023-04-14T21:44:44.384Z,7.86
2023-04-14T21:47:14.072Z,8.04
2023-04-14T21:49:43.367Z,8.09
2023-04-14T21:52:13.139Z,8.13
2023-04-14T21:54:44.269Z,8.23
2023-04-14T21:57:14.105Z,8.20
2023-04-14T21:59:43.464Z,8.20
2023-04-14T22:02:13.716Z,8.25
2023-04-14T22:04:43.267Z,8.17
2023-04-14T22:07:12.725Z,8.10
2023-04-14T22:09:43.828Z,8.15
2023-04-14T22:12:13.160Z,8.15
2023-04-14T22:14:42.566Z,8.14
2023-04-14T22:17:12.109Z,8.15
2023-04-14T22:19:41.686Z,8.17
2023-04-14T22:22:11.337Z,8.19
2023-04-14T22:24:40.790Z,8.17
2023-04-14T22:27:10.299Z,8.26
2023-04-14T22:29:39.599Z,8.27
2023-04-14T22:32:08.840Z,8.13
2023-04-14T22:34:38.441Z,8.03
2023-04-14T22:37:07.955Z,8.05
2023-04-14T22:39:37.304Z,8.07
2023-04-14T22:42:07.248Z,7.98
2023-04-14T22:44:37.374Z,7.98
2023-04-14T22:47:07.002Z,7.93
2023-04-14T22:49:36.448Z,7.98
2023-04-14T22:52:06.624Z,7.96
2023-04-14T22:54:36.539Z,7.89
2023-04-14T22:57:06.697Z,7.84
2023-04-14T22:59:37.086Z,7.73
2023-04-14T23:02:07.347Z,7.63
2023-04-14T23:04:36.939Z,7.59
2023-04-14T23:07:06.652Z,7.55
2023-04-14T23:09:36.120Z,7.47
2023-04-14T23:12:06.246Z,7.57
2023-04-14T23:14:35.778Z,7.55
2023-04-14T23:17:05.004Z,7.49
2023-04-14T23:19:35.755Z,7.43
2023-04-14T23:22:05.010Z,7.40
2023-04-14T23:24:34.462Z,7.36
2023-04-14T23:27:04.074Z,7.32
2023-04-14T23:29:33.385Z,7.29
2023-04-14T23:32:02.990Z,7.23
2023-04-14T23:34:32.458Z,7.23
2023-04-14T23:37:02.371Z,7.06
2023-04-14T23:39:31.792Z,7.05
2023-04-14T23:42:01.049Z,7.08
2023-04-14T23:44:30.317Z,7.05
2023-04-14T23:47:00.074Z,7.08
2023-04-14T23:49:34.259Z,7.02
2023-04-14T23:52:00.683Z,7.02
2023-04-14T23:54:31.104Z,6.85
2023-04-14T23:57:00.457Z,6.89
2023-04-14T23:59:29.944Z,6.81
